createdAt,value
2023-01-19T00:01:14.138Z,14.10
2023-01-19T00:03:42.456Z,13.57
2023-01-19T00:06:09.234Z,13.18
2023-01-19T00:08:36.804Z,12.93
2023-01-19T00:11:04.062Z,12.88
2023-01-19T00:13:31.384Z,13.27
2023-01-19T00:15:58.309Z,13.15
2023-01-19T00:18:25.952Z,13.40
2023-01-19T00:20:52.547Z,13.23
2023-01-19T00:23:24.449Z,12.85
2023-01-19T00:25:51.358Z,12.57
2023-01-19T00:28:19.073Z,11.93
2023-01-19T00:30:45.975Z,12.40
2023-01-19T00:33:16.360Z,12.15
2023-01-19T00:35:46.917Z,12.80
2023-01-19T00:38:13.816Z,12.50
2023-01-19T00:40:43.507Z,12.32
2023-01-19T00:43:10.096Z,12.55
2023-01-19T00:45:36.759Z,12.40
2023-01-19T00:48:03.628Z,12.48
2023-01-19T00:50:34.008Z,12.40
2023-01-19T00:53:01.869Z,12.80
2023-01-19T00:55:33.269Z,12.40
2023-01-19T00:58:00.231Z,12.75
2023-01-19T01:00:29.377Z,13.05
2023-01-19T01:02:56.188Z,12.38
2023-01-19T01:05:24.922Z,12.90
2023-01-19T01:07:53.233Z,13.02
2023-01-19T01:10:25.514Z,12.63
2023-01-19T01:12:54.944Z,13.00
2023-01-19T01:15:27.500Z,12.63
2023-01-19T01:17:54.925Z,12.95
2023-01-19T01:20:26.254Z,12.63
2023-01-19T01:22:53.855Z,12.25
2023-01-19T01:25:23.247Z,12.05
2023-01-19T01:27:50.561Z,13.30
2023-01-19T01:30:21.156Z,13.10
2023-01-19T01:32:48.252Z,13.50
2023-01-19T01:35:16.152Z,13.20
2023-01-19T01:37:47.073Z,12.45
2023-01-19T01:40:16.982Z,13.18
2023-01-19T01:42:47.588Z,12.70
2023-01-19T01:45:40.112Z,12.82
2023-01-19T01:48:32.702Z,12.90
2023-01-19T01:51:25.997Z,13.15
2023-01-19T01:54:07.172Z,13.20
2023-01-19T01:56:37.870Z,13.02
2023-01-19T01:59:11.854Z,12.43
2023-01-19T02:01:59.851Z,13.15
2023-01-19T02:04:33.256Z,13.32
2023-01-19T02:07:18.428Z,11.75
2023-01-19T02:10:03.859Z,12.10
2023-01-19T02:12:51.662Z,12.68
2023-01-19T02:15:20.281Z,12.25
2023-01-19T02:17:50.593Z,12.52
2023-01-19T02:20:21.547Z,12.43
2023-01-19T02:22:50.567Z,11.88
2023-01-19T02:25:19.224Z,12.02
2023-01-19T02:27:48.986Z,12.50
2023-01-19T02:30:16.878Z,12.27
2023-01-19T02:32:44.358Z,12.32
2023-01-19T02:35:12.156Z,11.82
2023-01-19T02:37:41.435Z,11.85
2023-01-19T02:40:14.387Z,11.70
2023-01-19T02:42:46.186Z,12.43
2023-01-19T02:45:17.295Z,11.55
2023-01-19T02:47:46.843Z,12.45
2023-01-19T02:50:46.327Z,11.88
2023-01-19T02:53:27.703Z,11.88
2023-01-19T02:56:06.744Z,11.82
2023-01-19T02:58:41.940Z,11.70
2023-01-19T03:01:30.092Z,10.35
2023-01-19T03:04:26.694Z,11.38
2023-01-19T03:07:13.299Z,11.30
2023-01-19T03:09:41.388Z,11.55
2023-01-19T03:12:53.919Z,12.40
2023-01-19T03:15:31.670Z,11.80
2023-01-19T03:18:02.180Z,12.38
2023-01-19T03:20:29.122Z,12.00
2023-01-19T03:23:03.281Z,12.02
2023-01-19T03:25:37.914Z,12.45
2023-01-19T03:28:07.871Z,11.43
2023-01-19T03:30:44.279Z,11.90
2023-01-19T03:36:03.600Z,11.63
2023-01-19T03:38:37.866Z,11.52
2023-01-19T03:41:09.223Z,11.95
2023-01-19T03:43:40.206Z,12.40
2023-01-19T03:46:08.558Z,12.75
2023-01-19T03:48:35.707Z,12.00
2023-01-19T03:51:07.242Z,12.85
2023-01-19T03:53:36.526Z,11.90
2023-01-19T03:56:06.587Z,12.27
2023-01-19T03:58:36.614Z,12.77
2023-01-19T04:01:04.173Z,11.95
2023-01-19T04:03:31.252Z,12.98
2023-01-19T04:05:58.128Z,12.35
2023-01-19T04:08:24.938Z,12.05
2023-01-19T04:10:51.645Z,11.95
2023-01-19T04:13:18.382Z,12.02
2023-01-19T04:15:44.969Z,11.82
2023-01-19T04:18:11.873Z,12.60
2023-01-19T04:20:38.495Z,12.77
2023-01-19T04:23:05.311Z,12.70
2023-01-19T04:25:34.627Z,13.32
2023-01-19T04:28:01.816Z,13.15
2023-01-19T04:30:30.927Z,13.60
2023-01-19T04:32:59.353Z,12.93
2023-01-19T04:35:28.892Z,13.32
2023-01-19T04:37:55.958Z,13.73
2023-01-19T04:40:23.345Z,13.75
2023-01-19T04:42:51.200Z,13.10
2023-01-19T04:45:18.539Z,14.02
2023-01-19T04:47:45.989Z,13.77
2023-01-19T04:50:22.787Z,13.48
2023-01-19T04:52:49.542Z,13.70
2023-01-19T04:55:16.287Z,14.57
2023-01-19T04:57:44.132Z,13.38
2023-01-19T05:00:14.727Z,13.98
2023-01-19T05:02:45.447Z,14.13
2023-01-19T05:05:12.510Z,14.05
2023-01-19T05:07:39.695Z,14.07
2023-01-19T05:10:07.130Z,14.82
2023-01-19T05:12:34.352Z,14.50
2023-01-19T05:15:04.528Z,13.73
2023-01-19T05:17:34.424Z,14.57
2023-01-19T05:20:03.321Z,15.40
2023-01-19T05:22:30.062Z,15.38
2023-01-19T05:24:56.819Z,15.23
2023-01-19T05:27:23.695Z,14.70
2023-01-19T05:29:53.645Z,15.25
2023-01-19T05:32:20.783Z,15.02
2023-01-19T05:34:47.397Z,14.38
2023-01-19T05:37:14.136Z,14.88
2023-01-19T05:39:41.630Z,15.13
2023-01-19T05:42:14.136Z,15.00
2023-01-19T05:44:42.971Z,14.88
2023-01-19T05:47:09.530Z,14.80
2023-01-19T05:49:38.784Z,14.82
2023-01-19T05:52:05.439Z,14.60
2023-01-19T05:54:32.213Z,14.93
2023-01-19T05:57:03.181Z,14.60
2023-01-19T05:59:29.928Z,15.10
2023-01-19T06:01:57.172Z,14.95
2023-01-19T06:04:23.973Z,16.20
2023-01-19T06:06:51.561Z,15.60
2023-01-19T06:09:18.213Z,15.63
2023-01-19T06:11:46.159Z,15.18
2023-01-19T06:14:13.758Z,16.02
2023-01-19T06:16:40.553Z,16.40
2023-01-19T06:19:07.277Z,16.35
2023-01-19T06:21:34.363Z,16.70
2023-01-19T06:24:01.258Z,15.75
2023-01-19T06:26:27.949Z,16.20
2023-01-19T06:28:57.335Z,16.73
2023-01-19T06:31:24.051Z,14.95
2023-01-19T06:33:50.732Z,16.52
2023-01-19T06:36:17.437Z,16.33
2023-01-19T06:38:47.140Z,15.13
2023-01-19T06:41:16.265Z,15.77
2023-01-19T06:43:42.770Z,15.00
2023-01-19T06:46:09.609Z,15.48
2023-01-19T06:48:36.349Z,15.50
2023-01-19T06:51:08.133Z,15.00
2023-01-19T06:53:38.895Z,14.70
2023-01-19T06:56:09.620Z,15.02
2023-01-19T06:58:36.675Z,15.30
2023-01-19T07:01:08.015Z,15.13
2023-01-19T07:03:36.220Z,15.77
2023-01-19T07:06:02.946Z,16.27
2023-01-19T07:08:29.883Z,16.55
2023-01-19T07:11:26.057Z,17.20
2023-01-19T07:16:21.974Z,17.48
2023-01-19T07:18:50.184Z,16.92
2023-01-19T07:21:17.369Z,17.65
2023-01-19T07:23:43.933Z,17.13
2023-01-19T07:26:10.669Z,18.40
2023-01-19T07:28:37.277Z,17.67
2023-01-19T07:31:04.537Z,18.30
2023-01-19T07:33:31.195Z,17.42
2023-01-19T07:35:57.803Z,18.20
2023-01-19T07:38:24.360Z,17.55
2023-01-19T07:40:50.963Z,17.50
2023-01-19T07:43:17.569Z,18.08
2023-01-19T07:45:45.201Z,16.45
2023-01-19T07:48:12.009Z,17.08
2023-01-19T07:50:38.611Z,17.67
2023-01-19T07:53:12.298Z,18.75
2023-01-19T07:55:39.055Z,18.33
2023-01-19T07:58:07.330Z,19.25
2023-01-19T08:00:35.782Z,18.70
2023-01-19T08:03:04.224Z,19.92
2023-01-19T08:05:32.672Z,19.75
2023-01-19T08:08:00.421Z,21.00
2023-01-19T08:10:28.786Z,20.33
2023-01-19T08:12:59.067Z,20.58
2023-01-19T08:15:26.533Z,20.42
2023-01-19T08:17:58.389Z,20.70
2023-01-19T08:20:27.067Z,20.42
2023-01-19T08:23:01.414Z,20.38
2023-01-19T08:25:45.249Z,21.58
2023-01-19T08:28:15.252Z,20.80
2023-01-19T08:30:44.791Z,21.42
2023-01-19T08:33:12.911Z,20.25
2023-01-19T08:35:41.926Z,20.80
2023-01-19T08:38:10.000Z,21.08
2023-01-19T08:40:39.124Z,21.95
2023-01-19T08:43:10.588Z,22.13
2023-01-19T08:45:48.091Z,20.83
2023-01-19T08:48:22.203Z,21.52
2023-01-19T08:50:52.870Z,20.52
2023-01-19T08:53:23.693Z,20.98
2023-01-19T08:55:57.174Z,19.90
2023-01-19T08:58:24.727Z,20.48
2023-01-19T09:00:52.798Z,20.48
2023-01-19T09:03:23.186Z,20.10
2023-01-19T09:06:01.623Z,19.92
2023-01-19T09:08:28.459Z,19.13
2023-01-19T09:10:55.475Z,20.70
2023-01-19T09:13:29.554Z,20.10
2023-01-19T09:16:02.643Z,19.98
2023-01-19T09:18:29.753Z,20.42
2023-01-19T09:20:57.999Z,20.27
2023-01-19T09:23:25.402Z,19.73
2023-01-19T09:25:59.411Z,20.50
2023-01-19T09:28:27.011Z,20.25
2023-01-19T09:30:53.858Z,20.02
2023-01-19T09:33:21.349Z,20.23
2023-01-19T09:35:52.067Z,20.02
2023-01-19T09:38:20.668Z,20.48
2023-01-19T09:40:52.158Z,20.77
2023-01-19T09:43:27.906Z,20.73
2023-01-19T09:46:15.075Z,21.58
2023-01-19T09:48:56.822Z,21.30
2023-01-19T09:51:28.189Z,20.75
2023-01-19T09:54:04.332Z,22.13
2023-01-19T09:56:32.322Z,22.10
2023-01-19T09:59:00.476Z,21.73
2023-01-19T10:01:41.724Z,21.40
2023-01-19T10:04:31.954Z,22.08
2023-01-19T10:07:13.978Z,21.48
2023-01-19T10:10:13.812Z,21.90
2023-01-19T10:13:14.179Z,21.42
2023-01-19T10:16:01.030Z,21.95
2023-01-19T10:18:51.676Z,21.73
2023-01-19T10:21:24.021Z,21.58
2023-01-19T10:23:52.631Z,20.85
2023-01-19T10:26:29.641Z,20.75
2023-01-19T10:29:03.125Z,20.73
2023-01-19T10:31:30.136Z,20.52
2023-01-19T10:33:57.150Z,20.75
2023-01-19T10:36:36.928Z,20.92
2023-01-19T10:39:05.257Z,21.50
2023-01-19T10:41:51.490Z,21.02
2023-01-19T10:44:36.597Z,20.60
2023-01-19T10:47:06.398Z,21.08
2023-01-19T10:49:42.882Z,20.20
2023-01-19T10:52:22.877Z,19.23
2023-01-19T10:54:49.738Z,19.75
2023-01-19T10:57:25.696Z,19.20
2023-01-19T10:59:52.432Z,19.33
2023-01-19T11:02:21.524Z,19.73
2023-01-19T11:04:51.607Z,19.63
2023-01-19T11:07:18.207Z,18.73
2023-01-19T11:09:45.046Z,18.88
2023-01-19T11:12:22.988Z,18.63
2023-01-19T11:14:51.343Z,17.63
2023-01-19T11:17:26.067Z,17.65
2023-01-19T11:19:56.252Z,17.58
2023-01-19T11:22:27.923Z,16.77
2023-01-19T11:25:03.201Z,17.42
2023-01-19T11:27:33.428Z,16.35
2023-01-19T11:30:09.900Z,16.83
2023-01-19T11:35:30.042Z,15.30
2023-01-19T11:38:24.699Z,16.30
2023-01-19T11:40:54.981Z,16.42
2023-01-19T11:43:24.278Z,17.02
2023-01-19T11:45:51.791Z,17.40
2023-01-19T11:48:33.429Z,16.65
2023-01-19T11:51:04.435Z,17.17
2023-01-19T11:53:34.193Z,16.83
2023-01-19T11:56:15.075Z,16.00
2023-01-19T11:58:46.958Z,16.90
2023-01-19T12:01:23.163Z,16.50
2023-01-19T12:03:55.995Z,16.98
2023-01-19T12:06:31.936Z,17.50
2023-01-19T12:09:18.289Z,16.67
2023-01-19T12:11:50.616Z,15.65
2023-01-19T12:14:23.620Z,16.48
2023-01-19T12:16:56.242Z,16.95
2023-01-19T12:19:29.479Z,17.15
2023-01-19T12:21:56.516Z,16.90
2023-01-19T12:24:59.793Z,16.90
2023-01-19T12:27:38.546Z,16.63
2023-01-19T12:30:10.538Z,16.30
2023-01-19T12:32:37.506Z,17.08
2023-01-19T12:35:49.426Z,17.27
2023-01-19T12:38:34.637Z,15.38
2023-01-19T12:41:27.481Z,15.38
2023-01-19T12:44:12.347Z,15.43
2023-01-19T12:46:41.444Z,15.10
2023-01-19T12:49:11.149Z,14.48
2023-01-19T12:51:38.653Z,14.73
2023-01-19T12:54:16.732Z,14.80
2023-01-19T12:56:43.589Z,15.02
2023-01-19T12:59:29.364Z,14.68
2023-01-19T13:02:17.901Z,15.00
2023-01-19T13:05:15.305Z,15.43
2023-01-19T13:08:09.567Z,14.30
2023-01-19T13:11:22.477Z,14.80
2023-01-19T13:13:49.880Z,12.68
2023-01-19T13:16:19.873Z,13.30
2023-01-19T13:18:55.547Z,13.55
2023-01-19T13:21:32.713Z,13.40
2023-01-19T13:24:02.287Z,13.27
2023-01-19T13:26:31.012Z,13.38
2023-01-19T13:29:08.141Z,14.57
2023-01-19T13:31:39.754Z,13.98
2023-01-19T13:34:14.138Z,13.77
2023-01-19T13:36:45.159Z,13.88
2023-01-19T13:39:21.758Z,14.43
2023-01-19T13:41:52.722Z,13.43
2023-01-19T13:44:27.484Z,14.00
2023-01-19T13:46:56.410Z,13.32
2023-01-19T13:49:39.085Z,12.60
2023-01-19T13:52:19.745Z,12.88
2023-01-19T13:54:55.898Z,12.57
2023-01-19T13:57:28.587Z,12.63
2023-01-19T14:00:11.894Z,11.90
2023-01-19T14:02:39.853Z,12.52
2023-01-19T14:05:23.397Z,13.93
2023-01-19T14:08:05.442Z,12.57
2023-01-19T14:10:33.436Z,12.73
2023-01-19T14:13:01.164Z,12.88
2023-01-19T14:15:29.695Z,12.55
2023-01-19T14:18:18.918Z,12.43
2023-01-19T14:20:52.475Z,12.15
2023-01-19T14:23:37.706Z,13.32
2023-01-19T14:26:04.549Z,12.48
2023-01-19T14:28:42.837Z,13.50
2023-01-19T14:31:24.302Z,12.93
2023-01-19T14:33:53.355Z,14.07
2023-01-19T14:36:26.539Z,13.85
2023-01-19T14:38:54.608Z,13.98
2023-01-19T14:41:26.393Z,13.80
2023-01-19T14:43:55.979Z,12.93
2023-01-19T14:46:24.651Z,13.48
2023-01-19T14:48:56.031Z,12.85
2023-01-19T14:51:24.417Z,12.05
2023-01-19T14:53:54.957Z,11.40
2023-01-19T14:56:40.392Z,11.70
2023-01-19T14:59:09.867Z,11.50
2023-01-19T15:01:37.198Z,10.95
2023-01-19T15:04:03.856Z,11.98
2023-01-19T15:06:31.548Z,10.70
2023-01-19T15:08:58.675Z,8.25
2023-01-19T15:11:31.075Z,8.48
2023-01-19T15:13:59.030Z,8.60
2023-01-19T15:16:27.481Z,8.73
2023-01-19T15:18:54.173Z,9.73
2023-01-19T15:21:26.828Z,8.98
2023-01-19T15:23:54.684Z,9.07
2023-01-19T15:26:24.506Z,10.40
2023-01-19T15:28:52.042Z,10.55
2023-01-19T15:31:21.589Z,9.85
2023-01-19T15:33:48.484Z,10.07
2023-01-19T15:36:19.389Z,9.65
2023-01-19T15:38:47.163Z,11.43
2023-01-19T15:41:23.791Z,9.30
2023-01-19T15:43:50.929Z,9.32
2023-01-19T15:46:22.307Z,8.63
2023-01-19T15:48:50.465Z,8.18
2023-01-19T15:51:19.484Z,8.70
2023-01-19T15:53:46.523Z,8.40
2023-01-19T15:56:40.035Z,7.85
2023-01-19T15:59:09.984Z,8.32
2023-01-19T16:01:36.955Z,8.18
2023-01-19T16:04:06.264Z,8.02
2023-01-19T16:06:33.692Z,7.75
2023-01-19T16:09:01.551Z,7.90
2023-01-19T16:11:33.453Z,7.40
2023-01-19T16:14:00.919Z,7.43
2023-01-19T16:16:28.229Z,7.93
2023-01-19T16:18:56.042Z,7.93
2023-01-19T16:21:23.775Z,7.68
2023-01-19T16:23:50.664Z,8.35
2023-01-19T16:26:26.825Z,8.32
2023-01-19T16:28:57.274Z,9.35
2023-01-19T16:31:27.624Z,9.10
2023-01-19T16:33:54.795Z,8.73
2023-01-19T16:36:26.774Z,8.55
2023-01-19T16:38:54.488Z,9.07
2023-01-19T16:41:21.489Z,8.07
2023-01-19T16:43:54.424Z,8.10
2023-01-19T16:46:26.222Z,8.15
2023-01-19T16:48:52.979Z,8.10
2023-01-19T16:51:20.065Z,7.57
2023-01-19T16:53:49.383Z,7.65
2023-01-19T16:56:16.920Z,6.97
2023-01-19T16:58:45.577Z,6.82
2023-01-19T17:01:20.084Z,7.32
2023-01-19T17:03:47.907Z,7.00
2023-01-19T17:06:18.094Z,7.63
2023-01-19T17:08:44.903Z,7.07
2023-01-19T17:11:22.584Z,7.55
2023-01-19T17:13:54.469Z,8.70
2023-01-19T17:16:22.277Z,9.10
2023-01-19T17:18:52.221Z,8.68
2023-01-19T17:21:20.474Z,8.82
2023-01-19T17:23:51.874Z,8.52
2023-01-19T17:26:22.181Z,8.50
2023-01-19T17:28:48.958Z,8.45
2023-01-19T17:31:24.364Z,9.40
2023-01-19T17:33:51.462Z,8.38
2023-01-19T17:36:22.596Z,8.23
2023-01-19T17:38:50.464Z,7.82
2023-01-19T17:41:24.870Z,8.38
2023-01-19T17:43:52.258Z,7.47
2023-01-19T17:46:24.154Z,7.15
2023-01-19T17:48:54.125Z,7.47
2023-01-19T17:51:22.996Z,7.30
2023-01-19T17:53:51.165Z,6.57
2023-01-19T17:56:22.081Z,7.18
2023-01-19T17:58:49.969Z,7.28
2023-01-19T18:01:22.687Z,8.57
2023-01-19T18:03:49.363Z,7.45
2023-01-19T18:06:16.606Z,7.72
2023-01-19T18:08:46.173Z,7.45
2023-01-19T18:11:14.124Z,7.13
2023-01-19T18:13:43.879Z,6.93
2023-01-19T18:16:13.992Z,7.70
2023-01-19T18:18:41.359Z,7.43
2023-01-19T18:21:12.761Z,7.53
2023-01-19T18:23:40.277Z,7.65
2023-01-19T18:26:13.073Z,8.20
2023-01-19T18:28:57.000Z,8.50
2023-01-19T18:31:24.663Z,8.38
2023-01-19T18:33:53.262Z,7.85
2023-01-19T18:36:20.382Z,7.78
2023-01-19T18:38:47.711Z,8.55
2023-01-19T18:41:19.798Z,7.38
2023-01-19T18:43:47.890Z,6.63
2023-01-19T18:46:15.128Z,6.85
2023-01-19T18:48:41.808Z,6.30
2023-01-19T18:51:13.544Z,5.47
2023-01-19T18:53:41.201Z,5.13
2023-01-19T18:56:08.763Z,4.95
2023-01-19T18:58:38.193Z,4.43
2023-01-19T19:01:25.714Z,4.35
2023-01-19T19:03:55.830Z,3.75
2023-01-19T19:06:24.199Z,4.28
2023-01-19T19:08:52.470Z,4.40
2023-01-19T19:11:21.332Z,3.65
2023-01-19T19:14:00.384Z,3.60
2023-01-19T19:16:28.542Z,3.65
2023-01-19T19:18:55.493Z,3.97
2023-01-19T19:21:25.159Z,3.70
2023-01-19T19:23:54.056Z,3.63
2023-01-19T19:26:21.392Z,3.50
2023-01-19T19:28:49.831Z,2.97
2023-01-19T19:31:24.910Z,3.10
2023-01-19T19:33:52.148Z,3.35
2023-01-19T19:36:19.966Z,3.17
2023-01-19T19:38:47.607Z,3.03
2023-01-19T19:41:17.437Z,3.20
2023-01-19T19:43:46.787Z,3.08
2023-01-19T19:46:19.949Z,2.95
2023-01-19T19:48:48.334Z,2.83
2023-01-19T19:51:19.269Z,3.28
2023-01-19T19:53:48.399Z,2.65
2023-01-19T19:56:19.753Z,2.60
2023-01-19T19:58:47.280Z,2.67
2023-01-19T20:01:16.463Z,2.60
2023-01-19T20:03:45.591Z,2.83
2023-01-19T20:06:15.439Z,2.95
2023-01-19T20:08:47.210Z,3.40
2023-01-19T20:11:17.214Z,3.40
2023-01-19T20:13:44.751Z,3.25
2023-01-19T20:16:13.899Z,3.55
2023-01-19T20:18:42.478Z,3.25
2023-01-19T20:21:21.410Z,3.28
2023-01-19T20:23:50.607Z,3.60
2023-01-19T20:26:20.009Z,3.28
2023-01-19T20:28:47.053Z,3.20
2023-01-19T20:31:15.845Z,2.80
2023-01-19T20:33:47.402Z,3.50
2023-01-19T20:36:18.005Z,3.40
2023-01-19T20:38:45.229Z,2.88
2023-01-19T20:41:12.789Z,3.03
2023-01-19T20:43:40.080Z,3.03
2023-01-19T20:46:07.271Z,2.85
2023-01-19T20:48:34.010Z,2.70
2023-01-19T20:51:05.539Z,3.25
2023-01-19T20:53:32.823Z,3.20
2023-01-19T20:56:06.094Z,2.70
2023-01-19T20:58:33.336Z,2.65
2023-01-19T21:00:59.987Z,2.55
2023-01-19T21:03:26.571Z,2.88
2023-01-19T21:05:53.163Z,3.10
2023-01-19T21:08:19.921Z,3.40
2023-01-19T21:10:46.583Z,2.90
2023-01-19T21:13:13.202Z,2.65
2023-01-19T21:15:39.855Z,3.03
2023-01-19T21:18:06.394Z,3.13
2023-01-19T21:20:33.085Z,2.80
2023-01-19T21:22:59.688Z,3.15
2023-01-19T21:25:26.260Z,3.47
2023-01-19T21:27:52.883Z,3.38
2023-01-19T21:30:19.722Z,3.00
2023-01-19T21:32:46.341Z,3.28
2023-01-19T21:35:13.408Z,3.45
2023-01-19T21:37:40.239Z,4.10
2023-01-19T21:40:07.760Z,3.42
2023-01-19T21:42:34.369Z,2.95
2023-01-19T21:45:01.006Z,2.90
2023-01-19T21:47:27.559Z,2.97
2023-01-19T21:49:54.359Z,2.90
2023-01-19T21:52:20.941Z,3.03
2023-01-19T21:54:47.550Z,3.05
2023-01-19T21:57:15.201Z,3.47
2023-01-19T21:59:41.831Z,2.88
2023-01-19T22:02:11.654Z,3.03
2023-01-19T22:04:39.273Z,3.33
2023-01-19T22:07:06.370Z,2.70
2023-01-19T22:09:36.419Z,3.03
2023-01-19T22:12:03.212Z,3.08
2023-01-19T22:14:29.880Z,3.15
2023-01-19T22:16:56.520Z,3.03
2023-01-19T22:19:25.497Z,3.05
2023-01-19T22:21:52.159Z,3.10
2023-01-19T22:24:19.929Z,2.97
2023-01-19T22:26:46.484Z,3.10
2023-01-19T22:29:13.329Z,3.33
2023-01-19T22:31:40.500Z,3.30
2023-01-19T22:34:10.316Z,2.90
2023-01-19T22:36:37.765Z,2.90
2023-01-19T22:39:06.851Z,3.00
2023-01-19T22:41:33.466Z,3.25
2023-01-19T22:44:03.522Z,3.42
2023-01-19T22:46:32.474Z,3.25
2023-01-19T22:49:00.074Z,3.00
2023-01-19T22:51:28.664Z,3.50
2023-01-19T22:53:55.662Z,3.30
2023-01-19T22:56:27.952Z,3.38
2023-01-19T22:58:55.721Z,3.17
2023-01-19T23:01:27.585Z,3.33
2023-01-19T23:03:55.939Z,3.15
2023-01-19T23:06:34.459Z,2.95
2023-01-19T23:09:04.537Z,3.22
2023-01-19T23:11:39.386Z,3.05
2023-01-19T23:14:09.512Z,3.40
2023-01-19T23:16:36.070Z,4.05
2023-01-19T23:19:03.525Z,3.40
2023-01-19T23:21:31.515Z,3.38
2023-01-19T23:24:01.141Z,3.25
2023-01-19T23:26:30.736Z,3.50
2023-01-19T23:29:01.509Z,3.50
2023-01-19T23:31:31.169Z,3.53
2023-01-19T23:34:00.621Z,3.72
2023-01-19T23:36:29.514Z,3.20
2023-01-19T23:38:58.782Z,3.85
2023-01-19T23:41:26.435Z,3.97
2023-01-19T23:43:53.034Z,3.90
2023-01-19T23:46:20.156Z,3.85
2023-01-19T23:48:47.442Z,3.30
2023-01-19T23:51:17.171Z,3.70
2023-01-19T23:53:43.822Z,3.60
2023-01-19T23:56:10.381Z,3.65
2023-01-19T23:58:37.844Z,3.90
